Date,TemperatureHighF,TemperatureAvgF,TemperatureLowF,DewpointHighF,DewpointAvgF,DewpointLowF,HumidityHigh,HumidityAvg,HumidityLow,PressureMaxIn,PressureMinIn,WindSpeedMaxMPH,WindSpeedAvgMPH,GustSpeedMaxMPH,PrecipitationSumIn
2013-1-1,53,49,36,53,45,26,98,87,55,30.30,30.00,15,3,15,0.08
2013-1-2,46,36,28,26,23,20,78,60,43,30.36,30.24,13,3,13,0.00
2013-1-3,44,36,24,32,24,20,91,64,47,30.47,30.33,13,2,13,0.00
2013-1-4,42,38,32,36,32,24,95,83,52,30.53,30.39,13,2,13,0.33
2013-1-5,60,43,33,42,36,31,96,78,44,30.41,30.21,9,1,9,0.04
2013-1-6,61,42,30,36,28,19,98,63,29,30.44,30.30,13,3,13,0.00
2013-1-7,57,40,25,35,28,22,89,65,40,30.36,30.09,12,2,12,0.00
2013-1-8,50,47,44,49,45,35,98,92,64,30.09,29.94,11,2,11,1.17
2013-1-9,76,53,48,54,51,43,98,94,81,30.06,29.88,22,4,22,0.91
2013-1-10,66,51,43,48,41,36,98,72,43,30.09,29.97,26,3,26,0.00
2013-1-11,75,58,40,60,49,37,96,76,46,30.03,29.79,24,4,24,0.00
2013-1-12,74,62,43,66,54,26,96,78,45,29.97,29.68,20,4,20,2.66
2013-1-13,51,41,34,28,22,16,57,47,37,30.24,29.97,18,7,19,0.00
2013-1-14,51,38,29,26,20,-31,55,48,37,30.30,30.09,15,5,15,0.00
2013-1-15,38,35,30,32,26,15,94,71,52,30.30,30.12,15,7,18,0.00
2013-1-16,53,37,25,24,12,-12,62,41,6,30.36,30.21,22,4,22,0.00
2013-1-17,67,45,28,36,27,15,78,52,26,30.50,30.30,16,3,16,0.00
2013-1-18,67,46,27,36,29,24,92,56,25,30.53,30.30,10,2,13,0.00
2013-1-19,70,52,36,44,37,28,96,60,34,30.33,30.15,13,4,13,0.00
2013-1-20,78,54,33,45,38,31,97,61,25,30.27,30.06,9,2,9,0.00
2013-1-21,74,54,37,45,38,32,97,61,32,30.27,30.15,8,2,8,0.00
2013-1-22,73,53,37,47,40,32,91,63,39,30.33,30.21,17,3,17,0.00
2013-1-23,75,58,43,52,48,42,97,73,44,30.36,30.21,17,4,17,0.00
2013-1-24,84,64,50,64,54,48,98,73,35,30.27,30.09,14,3,14,0.00
2013-1-25,84,66,49,60,54,42,95,68,36,30.21,30.00,15,4,15,2.66
2013-1-26,64,53,47,55,48,42,97,84,71,30.21,30.09,10,2,10,0.00
2013-1-27,54,53,53,53,52,52,97,97,97,30.12,30.09,6,4,8,0.00
2013-1-28,75,70,67,64,62,60,89,74,62,30.06,29.85,24,8,24,0.00
2013-1-29,81,66,52,64,51,19,90,62,26,29.91,29.56,26,9,26,0.00
2013-1-30,59,48,32,26,10,-14,46,25,5,30.24,29.82,30,8,30,0.00
2013-1-31,69,47,25,32,6,-16,78,33,3,30.33,30.15,17,3,18,0.00
2013-2-1,71,47,33,39,26,18,71,45,25,30.39,30.15,22,3,22,0.00
2013-2-2,79,59,41,49,41,32,90,54,32,30.33,30.15,13,3,13,34.39
2013-2-3,73,56,38,42,34,0,88,48,7,30.36,30.03,14,3,14,0.00
2013-2-4,79,62,51,55,50,42,90,67,39,30.06,29.79,14,4,14,0.00
2013-2-5,81,60,43,48,43,33,97,60,26,30.03,29.85,10,2,12,0.00
2013-2-6,77,64,54,57,52,43,85,67,45,30.00,29.82,14,4,15,0.00
2013-2-7,84,67,56,57,49,26,92,59,17,30.15,29.85,18,5,18,0.00
2013-2-8,72,56,44,39,18,-22,61,33,2,30.27,30.09,13,4,13,0.00
2013-2-9,67,56,47,63,50,0,97,83,37,30.12,29.79,16,6,16,0.00
2013-2-10,68,59,50,64,48,-12,97,75,4,30.06,29.74,32,4,32,1.25
2013-2-11,61,53,48,46,40,34,83,63,42,30.12,29.97,13,3,13,1.25
2013-2-12,72,55,43,52,36,-16,98,63,3,30.12,29.82,25,5,25,1.25
2013-2-13,66,47,34,35,30,22,85,54,28,30.21,30.03,15,4,15,1.25
2013-2-14,74,53,32,42,28,-22,92,49,3,30.15,29.97,12,3,12,0.00
2013-2-15,62,48,34,36,29,16,75,49,37,30.41,30.06,18,5,18,1.25
2013-2-16,68,47,29,29,19,-16,76,41,4,30.47,30.21,12,2,12,1.25
2013-2-17,70,55,36,48,32,20,67,44,25,30.24,29.97,24,7,24,1.25
2013-2-18,81,66,53,55,33,-22,78,45,2,30.12,29.85,28,8,28,1.25
2013-2-19,69,55,38,33,20,-14,54,30,4,30.33,30.09,17,4,17,1.25
2013-2-20,61,54,51,60,42,27,98,68,35,30.15,29.68,26,6,26,1.25
2013-2-21,76,64,46,62,23,-22,98,40,2,29.88,29.62,31,7,31,1.25
2013-2-22,65,47,39,36,28,21,77,48,32,30.12,29.85,13,4,13,1.25
2013-2-23,73,51,31,37,24,-22,71,41,2,30.12,29.88,18,3,18,1.25
2013-2-24,75,56,34,56,41,26,87,59,35,29.94,29.59,23,6,23,1.25
2013-2-25,61,53,43,58,30,-12,92,46,5,29.88,29.56,37,11,37,1.25
2013-2-26,69,50,36,31,22,-16,58,37,3,30.00,29.85,23,5,23,1.25
2013-2-27,63,50,40,31,20,-11,52,33,5,30.27,29.85,25,6,25,1.25
2013-2-28,64,46,34,31,14,-14,58,34,4,30.36,30.21,17,3,17,1.25
2013-3-1,70,40,27,34,15,-16,80,48,3,30.33,30.15,20,2,20,1.25
2013-3-2,64,47,34,27,24,19,64,42,24,30.44,30.27,20,4,20,1.25
2013-3-3,78,57,36,78,17,-22,100,33,2,30.27,29.91,24,6,24,1.25
2013-3-4,91,69,54,47,28,-18,66,33,2,29.94,29.71,18,5,18,1.25
2013-3-5,68,56,38,43,21,-14,50,33,4,30.39,29.74,29,9,29,0.04
2013-3-6,69,48,28,28,3,-16,63,26,3,30.47,30.21,12,3,12,0.04
2013-3-7,73,56,38,50,36,19,72,49,35,30.27,30.09,19,6,19,0.00
2013-3-8,62,58,55,60,55,49,97,89,72,30.18,30.00,15,5,15,0.00
2013-3-9,73,65,59,63,60,56,96,85,69,30.00,29.68,24,7,24,0.66
2013-3-10,63,56,39,58,33,22,97,45,29,30.15,29.76,30,8,30,0.00
2013-3-11,71,50,31,29,11,-22,74,35,2,30.21,29.97,16,4,16,0.00
2013-3-12,82,59,38,38,16,-22,74,32,2,30.30,30.06,17,4,17,0.00
2013-3-13,79,61,42,37,30,21,55,33,12,30.44,30.27,17,4,17,0.00
2013-3-14,78,62,44,48,40,29,79,45,30,30.39,30.21,18,6,18,0.00
2013-3-15,81,66,51,52,46,35,92,53,30,30.24,29.97,23,6,23,0.00
2013-3-16,85,70,54,59,51,44,90,56,30,30.00,29.74,24,7,24,0.00
2013-3-17,88,72,64,59,56,49,81,60,34,29.85,29.68,21,5,21,0.00
2013-3-18,87,70,55,65,48,32,96,54,15,29.97,29.74,17,4,17,0.00
2013-3-19,86,65,44,59,47,36,85,54,32,30.12,29.85,17,4,17,0.00
2013-3-20,75,60,47,51,36,-21,94,49,2,30.33,30.00,17,5,17,0.04
2013-3-21,78,63,52,56,47,32,85,57,43,30.06,29.65,30,6,30,0.04
2013-3-22,85,69,53,64,55,41,87,62,38,29.82,29.65,17,4,17,0.04
2013-3-23,84,61,48,57,48,42,90,67,31,29.85,29.62,16,3,16,0.04
2013-3-24,59,49,39,56,24,-7,92,42,7,30.21,29.74,26,9,27,0.04
2013-3-25,64,47,31,20,4,-14,46,24,4,30.41,30.18,13,4,13,0.04
2013-3-26,71,50,27,28,5,-22,65,27,2,30.50,30.27,11,2,11,0.04
2013-3-27,71,56,37,43,33,19,67,44,34,30.33,30.15,24,5,24,0.04
2013-3-28,72,61,50,56,51,43,85,70,51,30.21,30.12,18,5,19,0.04
2013-3-29,77,66,54,58,52,49,96,64,41,30.21,30.03,21,5,21,0.04
2013-3-30,87,70,62,60,56,52,87,63,39,30.12,29.91,20,4,20,0.04
2013-3-31,80,69,62,70,61,56,91,77,50,30.00,29.85,12,2,12,0.09
2013-4-1,89,71,32,61,57,0,97,65,36,30.09,29.91,17,3,17,0.04
2013-4-2,78,67,63,66,61,59,91,82,55,30.03,29.85,32,4,32,0.50
2013-4-7,85,72,61,62,59,56,84,64,44,29.94,29.74,18,5,18,0.04
2013-4-8,74,68,64,65,62,58,90,82,71,29.85,29.71,20,4,20,0.04
2013-4-9,88,73,67,67,63,60,90,73,45,29.74,29.62,53,5,53,0.04
2013-4-10,71,54,41,66,44,34,89,69,49,30.00,29.68,21,6,21,0.12
2013-4-11,74,56,42,42,34,26,72,46,29,30.00,29.79,14,3,14,0.04
2013-4-12,84,62,41,47,41,35,94,53,20,30.30,29.85,14,2,14,3.49
2013-4-13,79,63,50,56,48,40,84,59,34,30.00,29.79,12,3,12,0.00
2013-4-14,91,72,53,63,55,50,95,62,29,29.85,29.59,14,4,14,0.00
2013-4-15,93,77,68,64,62,57,88,63,34,29.82,29.71,23,4,23,0.00
2013-4-16,90,76,66,68,62,60,91,65,41,29.91,29.79,18,4,18,0.00
2013-4-17,84,74,69,69,66,62,95,78,50,29.88,29.68,18,5,18,0.00
2013-4-18,73,60,47,69,45,28,89,61,37,30.15,29.68,20,6,20,0.13
2013-4-19,70,54,37,34,15,-16,75,34,3,30.33,30.15,17,4,17,0.00
2013-4-20,75,57,35,44,18,-22,87,36,2,30.24,30.00,16,3,16,0.00
2013-4-21,82,64,46,53,47,42,90,59,34,30.18,30.00,13,4,13,0.00
2013-4-22,85,69,52,57,54,50,94,61,37,30.15,29.88,20,4,20,0.00
2013-4-23,84,62,46,64,50,35,86,66,43,30.18,29.85,19,5,19,0.00
2013-4-24,67,52,42,36,32,27,72,48,32,30.33,30.18,17,6,17,0.00
2013-4-25,54,54,54,34,34,34,46,46,46,30.30,30.30,4,2,4,0.00
2013-5-1,93,76,63,64,61,56,94,63,37,30.00,29.80,12,2,12,0.29
2013-5-2,72,51,44,60,42,30,93,72,53,30.41,29.91,20,10,20,0.30
2013-5-3,70,53,38,33,17,-16,75,38,3,30.39,30.09,21,5,21,0.00
2013-5-4,84,61,36,44,20,-19,90,39,2,30.12,29.88,13,2,13,0.00
2013-5-5,78,61,42,46,38,27,74,44,31,30.18,30.03,15,3,15,0.00
2013-5-6,80,62,46,51,44,39,88,54,31,30.18,30.03,10,1,10,0.00
2013-5-7,90,68,46,52,47,43,94,52,25,30.12,29.94,13,2,13,0.00
2013-5-8,82,70,60,62,57,48,88,64,46,30.06,29.88,19,3,19,0.00
2013-5-9,76,68,61,69,62,56,93,82,64,30.06,29.85,20,2,20,0.04
2013-5-10,92,68,58,66,59,53,97,77,30,30.06,29.85,36,3,36,0.87
2013-5-11,82,68,58,62,52,40,98,61,31,30.21,30.06,16,4,16,0.00
2013-5-12,86,67,51,56,47,39,92,54,28,30.30,30.15,12,2,12,0.00
2013-5-13,90,69,47,55,47,42,94,53,21,30.30,30.15,15,2,15,0.00
2013-5-14,88,73,58,63,55,50,83,57,30,30.24,30.00,18,4,18,0.00
2013-5-15,88,73,62,70,65,60,97,78,44,30.12,29.82,20,4,20,0.62
2013-5-16,92,76,64,71,67,62,96,76,42,29.94,29.74,17,4,17,0.08
2013-5-17,97,82,71,70,68,63,90,65,38,29.91,29.79,14,4,14,0.00
2013-5-18,95,80,68,68,63,57,92,60,35,29.94,29.79,25,4,25,0.00
2013-5-19,94,80,69,68,64,61,88,62,40,29.88,29.74,25,5,25,0.00
2013-5-20,95,80,70,67,65,62,89,64,38,29.88,29.74,18,4,18,0.00
2013-5-21,86,76,65,69,64,53,88,69,51,29.94,29.76,18,5,18,0.00
2013-5-22,97,76,53,68,56,50,94,55,25,29.97,29.82,12,2,12,0.00
2013-5-23,90,78,70,71,68,65,93,71,48,30.06,29.91,12,3,12,0.00
2013-5-24,79,70,65,71,66,62,97,89,68,30.18,30.03,18,2,18,1.75
2013-5-25,85,71,65,70,66,62,97,86,54,30.18,30.03,14,3,14,2.28
2013-5-26,90,76,68,71,67,63,94,76,50,30.12,29.97,17,3,17,0.00
2013-5-27,91,76,68,69,66,63,90,73,44,30.03,29.85,10,0,10,0.00
2013-5-28,92,78,69,68,65,61,86,66,43,29.94,29.79,20,5,20,0.00
2013-5-29,90,76,71,73,67,66,84,75,50,29.88,29.74,25,5,25,0.00
2013-5-30,89,78,72,72,68,66,86,72,47,29.88,29.76,22,4,22,0.00
2013-5-31,92,80,73,72,69,66,87,69,50,29.91,29.76,18,4,18,0.00
2013-6-1,98,83,73,73,68,64,86,65,40,29.97,29.82,20,3,20,0.00
2013-6-2,94,77,65,71,60,54,91,60,31,30.12,29.94,17,3,17,0.08
2013-6-3,96,78,59,64,59,54,93,57,29,30.03,29.85,14,2,14,0.00
2013-6-4,95,80,66,67,62,57,92,57,33,29.94,29.82,15,3,15,0.00
2013-6-5,96,80,66,68,63,58,92,59,33,29.94,29.79,20,3,20,0.00
2013-6-6,99,81,69,68,62,56,89,55,28,30.00,29.79,18,3,18,0.00
2013-6-7,88,75,65,63,55,46,87,53,29,30.09,29.88,11,2,11,0.00
2013-6-8,92,76,58,68,58,47,85,57,37,30.00,29.79,19,2,19,0.00
2013-6-9,94,78,64,74,66,0,100,69,40,30.00,29.85,24,2,24,1.17
2013-6-10,99,82,67,71,64,54,94,58,27,30.03,29.91,13,2,13,0.00
2013-6-11,95,80,70,73,66,59,93,65,37,30.06,29.97,13,3,13,0.00
2013-6-12,96,81,70,71,67,62,91,65,38,30.09,29.97,15,3,15,0.00
2013-6-13,99,80,70,73,67,59,93,67,35,30.12,29.97,18,2,18,0.00
2013-6-14,93,79,71,73,69,64,90,73,44,30.06,29.91,13,2,13,0.00
2013-6-15,92,80,73,73,69,63,91,71,43,30.03,29.91,7,1,7,0.00
2013-6-16,97,84,71,72,66,58,90,58,35,30.06,29.91,16,3,16,0.00
2013-6-17,99,83,73,71,66,60,86,60,34,30.06,29.88,13,2,13,0.00
2013-6-18,99,81,66,73,67,62,96,66,37,30.06,29.91,15,2,15,0.71
2013-6-19,99,83,71,72,66,60,91,59,35,30.03,29.91,15,3,15,0.00
2013-6-20,97,83,71,69,64,57,86,57,33,30.09,29.97,20,4,20,0.00
2013-6-21,96,83,72,71,64,54,89,56,29,30.12,29.97,23,4,23,0.00
2013-6-22,98,83,70,70,64,56,89,56,29,30.09,29.91,16,4,16,0.00
2013-6-23,97,83,71,70,62,52,89,54,27,30.00,29.91,20,4,20,0.00
2013-6-24,98,83,72,71,65,58,88,57,30,30.06,29.91,23,5,23,0.00
2013-6-25,98,85,74,70,64,58,83,55,29,30.03,29.85,22,4,22,0.00
2013-6-26,100,85,73,72,65,59,81,56,29,30.00,29.88,20,4,20,0.00
2013-6-27,106,86,72,70,61,49,85,48,17,30.06,29.94,11,2,11,0.00
2013-6-28,109,88,70,69,61,53,82,44,23,30.03,29.85,10,2,10,0.00
2013-6-29,111,91,71,68,58,50,76,38,15,29.94,29.79,13,2,13,0.00
2013-6-30,95,82,68,68,60,51,90,50,32,30.00,29.85,13,2,13,0.08
2013-7-1,90,78,66,56,50,44,54,38,27,30.09,29.94,20,4,20,0.00
2013-7-2,96,78,61,59,46,8,77,39,5,30.15,29.97,18,3,18,0.00
2013-7-3,99,79,58,57,42,-5,69,32,2,30.09,29.91,13,2,15,0.00
2013-7-4,98,80,65,63,53,41,78,43,21,30.03,29.91,12,2,12,0.00
2013-7-5,101,84,65,65,56,50,79,42,20,30.03,29.85,14,3,14,0.00
2013-7-6,102,85,68,67,60,51,80,46,21,29.97,29.85,13,3,13,48.14
2013-7-7,102,85,71,71,65,58,88,56,27,30.03,29.91,20,3,20,0.00
2013-7-8,91,80,74,73,68,60,86,69,39,30.12,30.00,16,3,17,0.00
2013-7-9,100,84,71,72,65,59,92,58,29,30.18,30.00,15,4,15,0.00
2013-7-10,105,87,71,71,64,56,89,52,25,30.15,29.94,12,3,12,48.14
2013-7-11,104,88,73,71,63,54,81,48,25,30.06,29.88,13,3,13,0.00
2013-7-12,105,88,71,68,61,53,78,44,23,30.03,29.88,13,2,13,0.00
2013-7-13,108,89,70,68,59,51,79,40,18,30.03,29.85,14,2,229,0.00
2013-7-14,101,81,69,66,60,53,88,52,29,29.97,29.88,27,4,27,0.00
2013-7-15,72,68,65,70,66,63,97,94,88,30.06,29.91,15,3,15,3.20
2013-7-16,92,76,69,75,68,62,95,79,42,30.18,30.03,14,3,14,0.16
2013-7-17,90,73,67,75,68,65,97,85,46,30.24,30.15,26,2,26,1.25
2013-7-18,96,79,68,78,67,60,97,70,34,30.21,30.03,1,0,1,0.00
2013-7-19,98,82,67,73,64,56,95,61,30,30.12,29.91,14,0,14,0.00
2013-7-20,97,82,69,72,66,60,93,63,34,30.06,29.85,13,2,13,0.00
2013-7-21,99,80,70,73,68,63,93,73,36,30.00,29.88,15,3,15,4.98
2013-7-22,98,84,73,73,68,63,90,63,35,30.03,29.91,17,4,18,0.29
2013-7-23,98,84,74,72,66,59,86,58,29,30.06,29.88,15,4,15,0.29
2013-7-24,98,84,73,73,68,63,89,63,37,30.06,29.91,10,2,10,0.29
2013-7-25,102,85,72,72,66,58,90,56,29,30.09,29.97,11,2,11,0.29
2013-7-26,102,85,73,71,66,60,87,56,32,30.06,29.85,10,2,13,0.29
2013-7-27,93,79,70,72,67,60,93,69,40,30.03,29.91,13,4,13,0.29
2013-7-28,98,81,67,74,67,62,92,65,37,30.00,29.85,12,2,12,0.29
2013-7-29,99,85,74,72,66,57,87,58,27,30.06,29.94,17,4,17,0.29
2013-7-30,100,85,72,71,65,57,87,57,29,30.15,29.97,15,4,15,0.29
2013-7-31,105,87,71,70,62,54,89,48,24,30.15,29.97,11,2,11,0.29
2013-8-1,106,88,72,69,63,58,81,47,25,30.09,29.91,10,2,229,0.29
2013-8-2,102,87,73,65,61,56,67,43,25,30.00,29.91,13,3,13,0.29
2013-8-3,101,86,32,70,64,0,86,51,27,30.06,29.94,13,3,13,0.29
2013-8-4,100,86,72,72,67,59,88,55,33,30.12,29.97,14,3,14,0.29
2013-8-5,102,87,72,69,63,55,80,49,25,30.09,29.91,15,3,15,0.29
2013-8-6,103,87,72,71,65,55,83,52,26,30.00,29.82,15,3,15,0.29
2013-8-7,107,88,73,71,65,52,86,51,25,29.97,29.79,12,3,12,0.29
2013-8-8,105,88,72,70,63,52,88,49,19,29.94,29.79,13,3,13,0.29
2013-8-9,106,87,71,72,59,45,90,46,15,30.03,29.88,14,2,14,0.29
2013-8-10,106,87,72,70,64,52,81,50,25,30.09,29.97,20,2,20,0.29
2013-8-11,102,85,73,73,66,60,86,58,29,30.12,29.97,20,2,20,0.29
2013-8-12,102,85,71,71,64,58,90,55,29,30.12,29.97,14,1,14,0.29
2013-8-13,106,88,72,70,62,52,81,46,24,30.06,29.91,13,2,13,0.29
2013-8-14,109,86,76,71,66,58,77,55,25,30.06,29.94,19,3,19,0.29
2013-8-15,69,69,68,68,67,66,96,95,94,30.09,29.94,5,1,5,0.00
2013-8-16,94,77,68,74,65,56,96,71,32,30.12,29.97,15,2,15,0.00
2013-8-17,97,80,66,66,60,51,92,56,26,30.12,29.97,14,2,14,0.00
2013-8-18,99,80,63,67,57,51,93,51,24,30.12,29.97,115,1,229,0.00
2013-8-19,100,81,66,64,58,54,82,49,26,30.12,29.94,12,2,12,0.00
2013-8-20,97,82,66,66,59,53,84,51,26,30.09,29.94,13,2,229,0.00
2013-8-21,99,82,69,72,65,60,90,61,31,30.12,29.97,14,3,14,0.00
2013-8-22,100,84,70,72,65,59,90,55,30,30.12,29.94,11,2,11,0.00
2013-8-23,101,85,71,71,64,56,88,53,29,30.09,29.91,12,2,12,0.00
2013-8-24,102,84,71,77,64,56,83,54,31,30.12,29.97,12,2,229,0.29
2013-8-25,98,83,71,73,65,60,89,57,33,30.15,30.03,16,3,16,0.00
2013-8-26,94,79,71,71,66,61,88,67,38,30.18,30.03,16,4,16,0.00
2013-8-27,91,75,70,77,68,61,91,81,57,30.18,30.06,13,2,13,0.25
2013-8-28,99,82,67,74,65,59,96,62,32,30.15,30.03,10,1,229,0.00
2013-8-29,103,85,68,72,62,54,92,52,25,30.15,29.97,10,1,10,0.00
2013-8-30,106,86,69,70,62,54,83,49,24,30.09,29.88,11,1,11,0.00
2013-8-31,107,88,71,68,62,57,77,46,24,29.97,29.85,9,1,9,0.00
2013-9-1,104,86,72,70,63,57,78,48,26,29.97,29.85,10,2,10,0.00
2013-9-2,101,85,73,70,65,58,80,53,28,30.03,29.85,17,3,17,0.00
2013-9-3,107,86,70,72,66,58,85,56,24,30.06,29.91,17,2,17,0.04
2013-9-4,104,84,72,76,67,60,93,60,27,30.09,29.97,20,2,20,0.50
2013-9-5,101,88,71,71,65,58,87,49,29,30.15,30.00,12,2,12,0.00
2013-9-6,100,87,70,72,64,58,91,51,29,30.15,29.97,14,2,14,0.00
2013-9-7,100,88,71,74,66,59,90,52,29,30.06,29.91,22,3,22,0.00
2013-9-8,97,86,72,73,66,60,93,54,32,30.03,29.91,14,3,14,0.00
2013-9-9,96,86,75,74,65,60,85,51,36,30.03,29.91,15,4,15,0.08
2013-9-10,95,82,72,71,66,61,85,60,36,30.12,30.00,23,3,23,0.00
2013-9-11,97,81,70,73,64,54,92,61,29,30.15,30.00,12,2,12,0.00
2013-9-12,98,82,68,71,62,53,91,56,27,30.12,29.94,13,1,13,0.00
2013-9-13,101,83,67,70,60,53,89,50,25,30.00,29.85,13,1,13,0.00
2013-9-14,99,83,68,67,61,56,81,50,28,30.00,29.85,12,2,14,0.00
2013-9-15,96,81,70,72,64,58,88,60,36,30.09,29.94,14,2,14,0.00
2013-9-16,96,78,69,72,67,61,89,70,37,30.12,29.97,13,2,13,0.00
2013-9-17,95,80,70,75,67,61,94,69,36,30.15,29.94,13,2,13,0.00
2013-9-18,97,81,69,73,65,57,93,62,32,30.06,29.91,0,0,0,0.00
2013-9-19,95,77,71,78,69,64,95,79,40,30.00,29.85,15,0,15,0.42
2013-9-20,75,71,67,73,69,65,96,95,90,29.94,29.82,17,3,17,2.99
2013-9-21,84,72,59,66,55,41,92,60,29,30.00,29.85,18,5,18,2.99
2013-9-22,87,69,53,58,49,40,93,55,25,29.97,29.79,12,2,12,2.99
2013-9-23,93,72,54,61,52,46,95,56,23,29.88,29.76,8,1,9,2.99
2013-9-24,97,76,58,60,56,50,92,55,26,29.97,29.85,11,2,11,2.99
2013-9-25,99,79,61,66,59,54,93,56,27,29.94,29.79,8,2,8,2.99
2013-9-26,93,79,64,70,56,46,85,47,27,29.94,29.82,13,3,13,2.99
2013-9-27,90,77,70,79,71,67,94,82,58,29.94,29.85,25,4,25,2.99
2013-9-28,88,78,67,76,71,66,96,80,53,30.06,29.88,24,3,24,2.99
2013-9-29,82,66,60,66,60,53,98,83,47,30.12,29.97,10,2,10,2.99
2013-9-30,91,71,54,64,55,47,98,64,29,30.00,29.82,172,1,172,2.99
2013-10-1,92,75,61,72,64,56,96,71,39,29.94,29.85,13,2,13,2.99
2013-10-2,93,79,70,73,67,60,94,71,39,30.00,29.85,13,3,13,2.99
2013-10-3,93,80,69,73,66,61,95,67,39,29.97,29.85,14,3,14,2.99
2013-10-4,92,78,69,69,66,62,91,68,39,29.97,29.85,17,3,229,2.99
2013-10-5,91,72,59,72,57,37,93,62,41,30.12,29.91,19,4,19,2.99
2013-10-6,82,64,49,51,36,-18,93,48,2,30.18,30.09,14,2,14,2.99
2013-10-7,90,65,45,51,41,16,91,50,7,30.24,30.06,13,1,13,2.99
2013-10-8,88,67,48,54,47,42,94,55,21,30.15,29.97,11,2,11,2.99
2013-10-9,86,69,53,59,52,45,88,58,34,30.12,29.97,14,3,14,2.99
2013-10-10,87,71,60,66,60,56,96,70,40,30.06,29.91,15,3,15,2.99
2013-10-11,88,76,68,71,67,63,89,75,47,29.97,29.85,14,2,14,2.99
2013-10-12,93,79,71,76,69,64,95,73,41,30.06,29.91,11,3,11,2.99
2013-10-13,76,68,63,70,66,62,97,93,78,30.21,30.06,14,3,14,2.99
2013-10-14,81,72,68,74,69,67,97,89,65,30.12,29.94,13,3,13,2.99
2013-10-15,82,69,54,70,64,51,94,84,61,30.06,29.91,15,3,15,2.99
2013-10-16,62,55,51,56,53,50,98,91,76,30.15,30.03,12,3,12,2.99
2013-10-17,79,61,45,54,46,41,98,64,31,30.18,29.97,8,2,8,2.99
2013-10-18,69,61,53,61,55,48,90,81,67,30.09,29.91,22,3,22,2.99
2013-10-19,70,55,44,50,39,32,89,60,31,30.27,30.09,17,4,17,2.99
2013-10-20,77,57,39,48,43,38,97,66,34,30.12,29.91,15,2,15,2.99
2013-10-21,84,65,55,66,56,46,92,72,48,30.15,29.94,16,3,16,0.00
2013-10-22,78,61,47,51,41,32,88,55,20,30.24,30.09,12,3,12,0.00
2013-10-23,85,63,43,52,42,36,96,54,19,30.24,30.09,10,2,10,0.00
2013-10-24,85,63,45,53,44,37,94,56,23,30.30,30.15,8,1,8,0.00
2013-10-25,81,64,47,58,52,45,95,69,43,30.39,30.21,12,2,12,0.00
2013-10-26,81,68,61,64,59,56,93,77,49,30.27,30.06,13,3,13,0.00
2013-10-27,76,64,59,62,59,56,97,85,56,30.21,30.03,8,2,8,0.00
2013-10-28,83,70,62,67,63,60,97,82,49,30.12,29.97,15,4,15,0.00
2013-10-29,84,73,68,70,65,63,92,78,53,30.12,29.97,18,4,18,0.00
2013-10-30,83,72,68,71,68,66,96,87,65,30.06,29.82,10,2,10,0.05
2013-10-31,80,68,48,69,40,-18,97,56,2,29.94,29.79,24,3,24,0.08
2013-11-1,84,61,42,54,32,-18,97,51,2,30.15,29.88,20,2,20,0.00
2013-11-2,74,58,43,42,29,-21,74,41,2,30.36,30.15,15,3,15,0.00
2013-11-3,73,52,38,50,38,34,95,65,31,30.27,30.03,17,2,17,0.00
2013-11-4,61,59,56,60,56,48,96,89,69,30.09,29.97,12,2,12,0.04
2013-11-5,79,68,61,68,64,59,98,88,61,30.06,29.91,12,3,12,0.04
2013-11-6,67,57,44,66,49,36,98,78,43,30.36,30.00,17,3,17,0.08
2013-11-7,70,51,35,41,34,29,95,59,26,30.50,30.36,14,2,14,0.00
2013-11-8,68,54,44,46,38,32,88,58,32,30.41,30.18,3,0,3,0.00
2013-11-9,67,60,53,55,49,40,89,69,53,30.21,30.09,13,2,13,0.00
2013-11-10,75,61,54,57,54,49,94,79,50,30.33,30.18,8,1,8,0.00
2013-11-11,81,60,46,59,50,45,98,73,37,30.30,30.15,7,0,7,0.00
2013-11-12,56,48,34,54,39,19,98,71,46,30.65,30.27,26,4,26,0.00
2013-11-13,62,41,26,30,22,17,74,48,25,30.68,30.39,8,2,8,0.00
2013-11-14,35,30,28,31,25,22,88,81,70,30.41,30.27,4,1,4,0.00
2013-12-13,46,46,46,46,44,13,98,95,81,29.09,1.89,4,1,4,0.00
2013-12-14,54,44,36,44,34,26,98,71,43,29.53,29.03,19,4,19,0.00
2013-12-15,68,51,31,35,29,24,91,47,23,29.56,29.41,9,2,9,0.00
2013-12-16,74,50,30,40,32,27,95,57,22,29.47,29.32,12,3,12,0.00
2013-12-17,78,51,32,43,33,21,93,57,15,29.50,29.35,7,2,7,0.00
2013-12-18,72,53,33,52,42,31,94,69,42,29.47,29.23,18,3,18,0.00
2013-12-19,73,64,54,62,57,49,94,79,57,29.23,28.97,24,6,24,0.00
2013-12-20,75,68,64,67,63,50,94,84,60,29.03,28.82,26,4,26,0.00
2013-12-21,71,51,40,55,42,34,98,75,31,29.03,28.76,17,3,17,0.46
2013-12-22,54,44,33,41,32,20,98,66,40,29.56,29.03,20,5,20,0.00
2013-12-23,62,40,26,34,25,16,93,59,17,29.71,29.53,1,1,1,0.00
2013-12-24,64,44,28,35,27,22,96,58,25,29.68,29.41,1,1,1,0.00
2013-12-25,68,49,36,49,39,28,97,72,46,29.59,29.41,1,1,1,0.00
2013-12-26,61,45,34,38,34,32,96,69,42,29.62,29.47,1,1,1,0.00
2013-12-27,62,50,40,44,38,33,90,67,36,29.62,29.47,7,1,7,0.00
2013-12-28,68,51,38,50,42,36,96,72,40,29.50,29.17,14,2,14,0.00
2013-12-29,59,48,32,48,42,0,94,79,64,29.50,29.12,24,4,24,0.00
2013-12-30,50,38,31,29,23,18,88,55,38,29.56,29.41,10,4,10,0.00
2013-12-31,62,43,32,36,29,24,91,61,34,29.62,29.41,9,3,9,0.46
2014-1-1,71,52,34,51,40,25,94,67,44,29.41,29.12,27,4,27,0.00
2014-1-2,56,42,28,35,23,16,71,48,29,29.62,29.32,20,6,20,0.46